Time;durP1;ratioP1;P1;durP2;ratioP2;P2;SDS_P1;SDS_P2;PMS_P1;PMS_P2;Temp;Humidity;BMP_temperature;BMP_pressure;BME280_temperature;BME280_humidity;BME280_pressure;Samples;Min_cycle;Max_cycle;Signal;HPM_P1;HPM_P2
2022/06/14 00:03:03;;;;;;;3.75;2.00;;;9.60;99.90;;;;;;4912340;29;20046;-72
2022/06/14 00:05:29;;;;;;;5.00;2.10;;;9.60;99.90;;;;;;4921872;29;20032;-72
2022/06/14 00:07:54;;;;;;;5.35;2.42;;;9.60;99.90;;;;;;4926383;29;20554;-73
2022/06/14 00:10:20;;;;;;;5.43;2.45;;;9.60;99.90;;;;;;4923962;29;20058;-72
2022/06/14 00:12:46;;;;;;;3.22;2.17;;;9.60;99.90;;;;;;4922219;29;20292;-72
2022/06/14 00:15:11;;;;;;;5.30;2.15;;;9.60;99.90;;;;;;4917676;29;20047;-73
2022/06/14 00:17:37;;;;;;;4.10;2.30;;;9.70;99.90;;;;;;4919432;29;20020;-73
2022/06/14 00:20:04;;;;;;;3.30;2.72;;;9.70;99.90;;;;;;4918040;29;20087;-72
2022/06/14 00:22:29;;;;;;;2.88;2.15;;;9.70;99.90;;;;;;4924344;29;20042;-72
2022/06/14 00:24:55;;;;;;;4.28;2.72;;;9.70;99.90;;;;;;4924485;29;20031;-72
2022/06/14 00:27:21;;;;;;;4.55;3.13;;;9.60;99.90;;;;;;4922098;29;20067;-72
2022/06/14 00:29:47;;;;;;;5.22;2.42;;;9.60;99.90;;;;;;4921881;29;20051;-72
2022/06/14 00:32:13;;;;;;;7.03;3.13;;;9.50;99.90;;;;;;4919227;29;20035;-72
2022/06/14 00:34:38;;;;;;;5.03;2.63;;;9.50;99.90;;;;;;4921070;29;20114;-72
2022/06/14 00:37:12;;;;;;;5.20;2.50;;;9.40;99.90;;;;;;4920638;29;20046;-72
2022/06/14 00:39:37;;;;;;;4.18;2.30;;;9.40;99.90;;;;;;4921103;29;20100;-72
2022/06/14 00:42:03;;;;;;;3.97;2.53;;;9.30;99.90;;;;;;4921405;29;20495;-72
2022/06/14 00:44:29;;;;;;;3.58;2.95;;;9.10;99.90;;;;;;4924336;29;20043;-72
2022/06/14 00:47:08;;;;;;;3.63;2.05;;;9.00;99.90;;;;;;4922436;29;20845;-72
2022/06/14 00:49:47;;;;;;;5.68;2.50;;;8.90;99.90;;;;;;4916876;29;20051;-72
2022/06/14 00:52:47;;;;;;;7.50;3.10;;;8.80;99.90;;;;;;4912818;29;20038;-72
2022/06/14 00:55:22;;;;;;;6.38;2.67;;;8.70;99.90;;;;;;4923097;29;20039;-72
2022/06/14 00:58:17;;;;;;;7.32;3.17;;;8.70;99.90;;;;;;4921532;29;20028;-73
2022/06/14 01:00:58;;;;;;;7.30;3.55;;;8.80;99.90;;;;;;4920231;29;20084;-72
2022/06/14 01:03:29;;;;;;;5.28;3.00;;;8.80;99.90;;;;;;4918233;29;20566;-72
2022/06/14 01:06:10;;;;;;;6.25;2.83;;;8.80;99.90;;;;;;4894204;29;20051;-72
2022/06/14 01:08:47;;;;;;;3.73;2.87;;;8.80;99.90;;;;;;4902938;29;20111;-72
2022/06/14 01:11:51;;;;;;;6.60;3.50;;;8.80;99.90;;;;;;4914235;29;20122;-72
2022/06/14 01:14:38;;;;;;;4.45;3.10;;;8.70;99.90;;;;;;4922979;29;20116;-72
2022/06/14 01:17:04;;;;;;;5.45;2.97;;;8.70;99.90;;;;;;4918567;29;20060;-72
2022/06/14 01:19:30;;;;;;;6.65;3.30;;;8.70;99.90;;;;;;4918546;29;20040;-72
2022/06/14 01:22:02;;;;;;;6.10;2.65;;;8.60;99.90;;;;;;4912315;29;20042;-71
2022/06/14 01:24:28;;;;;;;3.78;3.20;;;8.60;99.90;;;;;;4910357;29;20068;-72
2022/06/14 01:26:54;;;;;;;5.68;3.15;;;8.50;99.90;;;;;;4919636;29;20083;-71
2022/06/14 01:29:22;;;;;;;5.35;3.25;;;8.50;99.90;;;;;;4916864;29;20048;-72
2022/06/14 01:31:51;;;;;;;6.72;3.20;;;8.40;99.90;;;;;;4915057;29;20031;-72
2022/06/14 01:34:18;;;;;;;10.75;3.13;;;8.40;99.90;;;;;;4914786;29;20475;-72
2022/06/14 01:36:44;;;;;;;6.60;3.70;;;8.40;99.90;;;;;;4911525;29;20100;-72
2022/06/14 01:39:14;;;;;;;9.38;4.18;;;8.40;99.90;;;;;;4918326;29;20051;-72
2022/06/14 01:42:01;;;;;;;4.97;3.40;;;8.50;99.90;;;;;;4903763;29;20028;-72
2022/06/14 01:44:49;;;;;;;6.05;4.35;;;8.40;99.90;;;;;;4921586;29;20047;-72
2022/06/14 01:47:24;;;;;;;6.60;4.05;;;8.40;99.90;;;;;;4919462;29;20028;-72
2022/06/14 01:53:45;;;;;;;6.50;4.40;;;8.40;99.90;;;;;;4907010;29;20047;-72
2022/06/14 01:56:47;;;;;;;6.70;3.80;;;8.30;99.90;;;;;;4918380;29;20067;-72
2022/06/14 01:59:19;;;;;;;;;;;8.20;99.90;;;;;;4921620;29;20094;-72
2022/06/14 02:02:10;;;;;;;;;;;8.20;99.90;;;;;;4920497;29;19959;-72
2022/06/14 02:04:50;;;;;;;6.22;3.60;;;8.20;99.90;;;;;;4910529;29;19958;-72
2022/06/14 02:07:31;;;;;;;6.30;4.03;;;8.10;99.90;;;;;;4917718;29;20028;-72
2022/06/14 02:10:21;;;;;;;8.70;5.18;;;8.10;99.90;;;;;;4919986;29;20545;-72
2022/06/14 02:12:58;;;;;;;6.55;3.92;;;8.10;99.90;;;;;;4906060;29;20435;-72
2022/06/14 02:15:30;;;;;;;4.93;3.15;;;8.00;99.90;;;;;;4919922;29;20118;-72
2022/06/14 02:18:28;;;;;;;5.10;3.08;;;7.90;99.90;;;;;;4923031;29;20043;-72
2022/06/14 02:21:18;;;;;;;5.90;3.78;;;7.90;99.90;;;;;;4912798;29;20024;-72
2022/06/14 02:23:48;;;;;;;7.55;3.85;;;7.80;99.90;;;;;;4923847;29;20098;-72
2022/06/14 02:26:24;;;;;;;4.75;3.10;;;7.70;99.90;;;;;;4918503;29;20035;-72
2022/06/14 02:29:07;;;;;;;5.78;3.50;;;7.70;99.90;;;;;;4903431;29;20043;-72
2022/06/14 02:31:38;;;;;;;8.07;4.28;;;7.70;99.90;;;;;;4911409;29;20046;-72
2022/06/14 02:34:13;;;;;;;8.53;4.03;;;7.70;99.90;;;;;;4915557;29;20036;-72
2022/06/14 02:36:44;;;;;;;9.23;5.07;;;7.70;99.90;;;;;;4917339;29;20039;-72
2022/06/14 02:39:24;;;;;;;10.15;5.45;;;7.80;99.90;;;;;;4909044;29;20035;-72
2022/06/14 02:41:59;;;;;;;7.63;4.38;;;7.80;99.90;;;;;;4910375;29;20043;-72
2022/06/14 02:44:33;;;;;;;9.63;4.70;;;7.90;99.90;;;;;;4925123;29;20044;-72
2022/06/14 02:47:04;;;;;;;7.55;4.90;;;7.80;99.90;;;;;;4918898;29;20139;-72
2022/06/14 02:49:46;;;;;;;6.95;4.55;;;7.80;99.90;;;;;;4906367;29;20044;-72
2022/06/14 02:52:29;;;;;;;8.35;4.50;;;7.80;99.90;;;;;;4918701;29;20491;-72
2022/06/14 02:55:07;;;;;;;7.38;4.20;;;7.80;99.90;;;;;;4917841;29;20039;-72
2022/06/14 02:57:48;;;;;;;5.82;4.40;;;7.90;99.90;;;;;;4922136;29;20039;-71
2022/06/14 03:00:30;;;;;;;7.75;4.57;;;7.90;99.90;;;;;;4923491;29;20050;-72
2022/06/14 03:03:14;;;;;;;8.75;4.63;;;7.90;99.90;;;;;;4916885;29;20028;-72
2022/06/14 03:06:13;;;;;;;6.57;3.83;;;7.90;99.90;;;;;;4915546;29;20456;-72
2022/06/14 03:09:08;;;;;;;5.57;4.00;;;7.80;99.90;;;;;;4906593;29;20079;-71
2022/06/14 03:12:05;;;;;;;6.80;3.67;;;7.70;99.90;;;;;;4921354;29;20051;-71
2022/06/14 03:14:45;;;;;;;5.10;3.70;;;7.60;99.90;;;;;;4936393;29;20145;-72
2022/06/14 03:17:18;;;;;;;8.50;4.10;;;7.60;99.90;;;;;;4908715;29;20036;-71
2022/06/14 03:19:59;;;;;;;6.32;3.75;;;7.50;99.90;;;;;;4939036;29;20382;-71
2022/06/14 03:23:13;;;;;;;9.35;4.28;;;7.40;99.90;;;;;;4917207;29;20717;-71
2022/06/14 03:25:54;;;;;;;9.88;4.78;;;7.40;99.90;;;;;;4846152;29;20052;-72
2022/06/14 03:28:26;;;;;;;;;;;7.30;99.90;;;;;;4915953;29;20106;-71
2022/06/14 03:31:03;;;;;;;7.18;3.80;;;7.30;99.90;;;;;;4914523;29;20400;-71
2022/06/14 03:33:58;;;;;;;6.22;3.55;;;7.30;99.90;;;;;;4917802;29;20047;-72
2022/06/14 03:36:24;;;;;;;6.95;3.60;;;7.30;99.90;;;;;;4904459;29;20183;-71
2022/06/14 03:39:02;;;;;;;6.30;3.90;;;7.20;99.90;;;;;;4912396;29;20094;-72
2022/06/14 03:41:31;;;;;;;9.75;4.35;;;7.20;99.90;;;;;;4920447;29;20028;-71
2022/06/14 03:44:00;;;;;;;8.73;3.95;;;7.20;99.90;;;;;;4924291;29;20296;-72
2022/06/14 03:46:34;;;;;;;6.85;3.55;;;7.30;99.90;;;;;;4924510;29;20042;-72
2022/06/14 03:49:09;;;;;;;5.72;4.10;;;7.20;99.90;;;;;;4925050;29;20051;-72
2022/06/14 03:51:49;;;;;;;8.70;3.95;;;7.20;99.90;;;;;;4916917;29;20031;-72
2022/06/14 03:54:45;;;;;;;6.85;4.15;;;7.20;99.90;;;;;;4924103;29;20450;-72
2022/06/14 03:57:29;;;;;;;7.07;3.80;;;7.20;99.90;;;;;;4924180;29;20040;-71
2022/06/14 04:00:28;;;;;;;10.18;4.00;;;7.20;99.90;;;;;;4919687;29;20096;-72
2022/06/14 04:03:11;;;;;;;7.38;3.97;;;7.10;99.90;;;;;;4918474;29;20042;-71
2022/06/14 04:06:06;;;;;;;5.50;4.32;;;7.10;99.90;;;;;;4917002;29;20035;-71
2022/06/14 04:09:00;;;;;;;6.72;4.30;;;7.10;99.90;;;;;;4922430;29;20048;-72
2022/06/14 04:11:54;;;;;;;6.63;4.15;;;7.10;99.90;;;;;;4923333;29;20598;-71
2022/06/14 04:14:54;;;;;;;6.18;3.95;;;7.10;99.90;;;;;;4924790;29;20138;-71
2022/06/14 04:17:43;;;;;;;8.85;4.30;;;7.10;99.90;;;;;;4908754;29;20076;-72
2022/06/14 04:20:35;;;;;;;7.18;4.10;;;7.10;99.90;;;;;;4914880;29;20035;-71
2022/06/14 04:23:21;;;;;;;6.68;3.85;;;7.10;99.90;;;;;;4920331;29;20039;-71
2022/06/14 04:26:03;;;;;;;8.02;3.85;;;7.00;99.90;;;;;;4925567;29;20075;-72
2022/06/14 04:28:53;;;;;;;5.05;3.38;;;7.00;99.90;;;;;;4916389;29;20038;-72
2022/06/14 04:31:37;;;;;;;5.03;4.18;;;7.00;99.90;;;;;;4911890;29;20586;-72
2022/06/14 04:34:16;;;;;;;4.95;3.65;;;7.00;99.90;;;;;;4918223;29;20042;-72
2022/06/14 04:36:56;;;;;;;7.25;4.03;;;7.10;99.90;;;;;;4905897;29;20034;-72
2022/06/14 04:39:34;;;;;;;5.33;3.63;;;7.00;99.90;;;;;;4922708;29;20039;-71
2022/06/14 04:42:08;;;;;;;5.65;3.70;;;7.00;99.90;;;;;;4909249;29;20138;-71
2022/06/14 04:44:42;;;;;;;4.97;3.47;;;7.00;99.90;;;;;;4906422;29;20032;-72
2022/06/14 04:47:31;;;;;;;6.68;3.50;;;7.10;99.90;;;;;;4912041;29;20039;-72
2022/06/14 04:50:11;;;;;;;5.43;3.30;;;7.10;99.90;;;;;;4916790;29;20126;-72
2022/06/14 04:52:46;;;;;;;5.93;3.53;;;7.10;99.90;;;;;;4911908;29;20048;-72
2022/06/14 04:55:20;;;;;;;7.32;4.10;;;7.10;99.90;;;;;;4922310;29;20229;-72
2022/06/14 04:58:17;;;;;;;5.15;3.28;;;7.20;99.90;;;;;;4924290;29;20197;-72
2022/06/14 05:00:53;;;;;;;5.22;3.50;;;7.20;99.90;;;;;;4922175;29;20075;-72
2022/06/14 05:03:22;;;;;;;6.65;3.80;;;7.30;99.90;;;;;;4916616;29;20072;-72
2022/06/14 05:05:56;;;;;;;8.13;4.72;;;7.40;99.90;;;;;;4906925;29;20555;-72
2022/06/14 05:08:30;;;;;;;8.45;4.00;;;7.40;99.90;;;;;;4903569;29;20777;-72
2022/06/14 05:10:58;;;;;;;5.97;4.05;;;7.50;99.90;;;;;;4915654;29;20051;-71
2022/06/14 05:13:42;;;;;;;7.43;3.78;;;7.60;99.90;;;;;;4919058;29;20416;-71
2022/06/14 05:16:13;;;;;;;10.65;3.47;;;7.70;99.90;;;;;;4903107;29;20507;-72
2022/06/14 05:19:09;;;;;;;6.47;3.60;;;7.80;99.90;;;;;;4907965;29;20550;-72
2022/06/14 05:22:02;;;;;;;5.03;3.67;;;7.80;99.90;;;;;;4914657;29;20111;-72
2022/06/14 05:24:30;;;;;;;6.78;4.90;;;7.90;99.90;;;;;;4917475;29;20040;-71
2022/06/14 05:26:58;;;;;;;8.63;4.43;;;8.00;99.90;;;;;;4910582;29;20115;-71
2022/06/14 05:29:31;;;;;;;4.90;3.53;;;8.10;99.90;;;;;;4907442;29;20179;-71
2022/06/14 05:32:06;;;;;;;8.25;4.50;;;8.20;99.90;;;;;;4914553;29;20035;-71
2022/06/14 05:34:52;;;;;;;6.35;3.42;;;8.30;99.90;;;;;;4920892;29;20036;-72
2022/06/14 05:37:26;;;;;;;5.05;4.18;;;8.40;99.90;;;;;;4917745;29;20803;-72
2022/06/14 05:40:10;;;;;;;4.93;3.60;;;8.50;99.90;;;;;;4907078;29;20415;-72
2022/06/14 05:42:45;;;;;;;5.53;4.28;;;8.60;99.90;;;;;;4914213;29;20078;-71
2022/06/14 05:45:17;;;;;;;6.53;3.97;;;8.70;99.90;;;;;;4921381;29;20196;-71
2022/06/14 05:47:49;;;;;;;7.78;4.60;;;8.80;99.90;;;;;;4918233;29;20032;-71
2022/06/14 05:50:23;;;;;;;8.00;5.03;;;9.00;99.90;;;;;;4921716;29;20039;-70
2022/06/14 05:53:18;;;;;;;8.05;4.72;;;9.20;99.90;;;;;;4913748;29;20071;-72
2022/06/14 05:55:51;;;;;;;6.43;4.25;;;9.30;99.90;;;;;;4903916;29;20913;-72
2022/06/14 05:58:25;;;;;;;9.25;4.45;;;9.40;99.90;;;;;;4913532;29;20488;-73
2022/06/14 06:00:59;;;;;;;5.15;3.92;;;9.60;99.90;;;;;;4917899;29;20629;-72
2022/06/14 06:03:46;;;;;;;8.10;4.03;;;9.70;99.90;;;;;;4920117;29;20043;-73
2022/06/14 06:06:22;;;;;;;6.57;4.18;;;9.80;99.90;;;;;;4915520;29;20032;-73
2022/06/14 06:09:00;;;;;;;7.15;4.28;;;9.90;99.90;;;;;;4909633;29;20050;-72
2022/06/14 06:11:35;;;;;;;6.68;3.78;;;10.00;99.90;;;;;;4910316;29;20595;-72
2022/06/14 06:14:07;;;;;;;6.43;4.25;;;10.10;99.90;;;;;;4909555;29;20062;-72
2022/06/14 06:16:45;;;;;;;7.05;3.80;;;10.20;99.90;;;;;;4913839;29;20040;-72
2022/06/14 06:19:19;;;;;;;5.78;3.80;;;10.40;99.90;;;;;;4917032;29;20035;-72
2022/06/14 06:21:53;;;;;;;7.78;4.30;;;10.50;99.90;;;;;;4919356;29;20529;-72
2022/06/14 06:24:42;;;;;;;6.20;4.00;;;10.60;99.90;;;;;;4916410;29;20040;-73
2022/06/14 06:27:10;;;;;;;4.93;3.50;;;10.70;99.90;;;;;;4910760;29;20170;-72
2022/06/14 06:29:53;;;;;;;6.88;3.95;;;10.90;99.90;;;;;;4905925;29;20123;-72
2022/06/14 06:32:21;;;;;;;6.22;4.10;;;11.00;99.90;;;;;;4919923;29;20114;-72
2022/06/14 06:34:49;;;;;;;8.40;3.90;;;11.20;99.90;;;;;;4918569;29;20035;-72
2022/06/14 06:37:29;;;;;;;42.10;28.83;;;11.40;99.90;;;;;;4906989;29;20577;-72
2022/06/14 06:40:01;;;;;;;174.68;94.22;;;11.50;99.90;;;;;;4909918;29;20113;-72
2022/06/14 06:42:33;;;;;;;58.70;30.00;;;11.60;99.90;;;;;;4915570;29;20352;-72
2022/06/14 06:45:24;;;;;;;11.73;6.30;;;11.80;99.90;;;;;;4917797;29;20032;-73
2022/06/14 06:48:17;;;;;;;6.05;3.58;;;11.90;99.90;;;;;;4917442;29;20064;-73
2022/06/14 06:51:05;;;;;;;4.55;2.83;;;12.00;99.90;;;;;;4917231;29;20062;-73
2022/06/14 06:53:40;;;;;;;4.57;3.35;;;12.20;99.90;;;;;;4914057;29;20059;-74
2022/06/14 06:56:13;;;;;;;5.20;3.17;;;12.30;99.90;;;;;;4912975;29;20034;-73
2022/06/14 06:58:47;;;;;;;9.63;3.22;;;12.40;99.90;;;;;;4912600;29;20028;-73
2022/06/14 07:01:19;;;;;;;8.20;3.47;;;12.60;99.90;;;;;;4915115;29;20040;-73
2022/06/14 07:04:00;;;;;;;5.38;2.60;;;12.70;99.90;;;;;;4915208;29;20042;-74
2022/06/14 07:06:27;;;;;;;3.92;2.28;;;12.90;99.90;;;;;;4911529;29;20136;-73
2022/06/14 07:09:05;;;;;;;5.97;2.85;;;13.10;99.90;;;;;;4913370;29;20054;-73
2022/06/14 07:12:09;;;;;;;4.00;2.60;;;13.40;99.90;;;;;;4910821;29;20063;-73
2022/06/14 07:15:03;;;;;;;4.10;2.38;;;13.70;99.90;;;;;;4918412;28;20036;-73
2022/06/14 07:17:54;;;;;;;3.13;1.98;;;13.90;99.90;;;;;;4910621;29;20040;-73
2022/06/14 07:20:33;;;;;;;4.60;2.27;;;14.00;99.90;;;;;;4916017;29;20123;-72
2022/06/14 07:23:07;;;;;;;1.95;1.75;;;14.40;99.90;;;;;;4912041;29;20168;-73
2022/06/14 07:26:11;;;;;;;9.88;5.88;;;14.50;99.90;;;;;;4915865;29;20102;-74
2022/06/14 07:28:59;;;;;;;3.38;1.83;;;14.70;99.90;;;;;;4899396;29;20135;-74
2022/06/14 07:32:00;;;;;;;2.97;1.90;;;15.50;99.90;;;;;;4915733;29;20052;-74
2022/06/14 07:34:27;;;;;;;3.20;1.80;;;19.90;99.90;;;;;;4901517;29;20090;-73
2022/06/14 07:37:20;;;;;;;4.40;1.73;;;24.70;96.90;;;;;;4911114;29;20062;-73
2022/06/14 07:39:55;;;;;;;4.18;1.55;;;27.80;62.20;;;;;;4910021;29;20039;-74
2022/06/14 07:42:32;;;;;;;3.00;1.30;;;30.60;50.80;;;;;;4900706;29;20524;-73
2022/06/14 07:45:17;;;;;;;3.22;1.42;;;32.90;42.80;;;;;;4900665;29;20052;-75
2022/06/14 07:47:51;;;;;;;3.60;1.10;;;34.20;37.00;;;;;;4915473;29;20181;-73
2022/06/14 07:50:36;;;;;;;4.57;1.55;;;35.20;34.30;;;;;;4905271;29;20043;-73
2022/06/14 07:53:14;;;;;;;2.35;0.85;;;36.90;33.10;;;;;;4903106;29;20070;-72
2022/06/14 07:55:53;;;;;;;4.85;1.17;;;35.60;31.30;;;;;;4908942;29;20046;-74
2022/06/14 07:58:35;;;;;;;0.80;0.80;;;36.10;29.50;;;;;;4909088;29;20032;-73
2022/06/14 08:01:09;;;;;;;2.85;1.02;;;36.40;29.90;;;;;;4904020;29;20042;-73
2022/06/14 08:03:44;;;;;;;2.45;0.90;;;37.80;29.80;;;;;;4895730;29;20437;-72
2022/06/14 08:06:19;;;;;;;3.28;1.00;;;38.40;30.00;;;;;;4898451;29;20032;-73
2022/06/14 08:08:51;;;;;;;2.63;0.73;;;37.80;28.80;;;;;;4898387;29;20027;-73
2022/06/14 08:11:27;;;;;;;3.75;1.27;;;37.40;30.50;;;;;;4903656;29;20056;-74
2022/06/14 08:14:07;;;;;;;1.27;0.95;;;39.30;30.00;;;;;;4901768;29;20071;-72
2022/06/14 08:16:33;;;;;;;2.33;0.90;;;39.10;28.80;;;;;;4901184;29;22045;-73
2022/06/14 08:19:25;;;;;;;2.80;0.95;;;39.60;28.10;;;;;;4897766;29;20965;-74
2022/06/14 08:21:59;;;;;;;5.55;1.20;;;39.10;28.00;;;;;;4563719;29;9999955;-73
2022/06/14 08:24:46;;;;;;;2.65;0.98;;;39.50;31.20;;;;;;4902529;29;20066;-73
2022/06/14 08:27:21;;;;;;;3.78;1.00;;;40.60;29.50;;;;;;4914679;29;20024;-73
2022/06/14 08:29:54;;;;;;;1.38;0.95;;;40.50;29.00;;;;;;4909254;29;20590;-73
2022/06/14 08:32:19;;;;;;;2.65;1.77;;;39.80;28.60;;;;;;4906331;29;20031;-73
2022/06/14 08:34:59;;;;;;;3.67;1.13;;;40.20;27.40;;;;;;4913437;29;20036;-74
2022/06/14 08:37:42;;;;;;;2.65;0.90;;;39.10;27.90;;;;;;4892601;29;20480;-73
2022/06/14 08:40:42;;;;;;;2.47;1.20;;;39.30;30.10;;;;;;4918140;29;20099;-75
2022/06/14 08:43:11;;;;;;;3.30;1.13;;;39.50;29.90;;;;;;4908115;29;20484;-75
2022/06/14 08:45:41;;;;;;;2.50;1.40;;;40.10;30.60;;;;;;4901715;29;20044;-75
2022/06/14 08:48:34;;;;;;;3.23;1.00;;;39.40;28.60;;;;;;4909975;29;20024;-77
2022/06/14 08:51:11;;;;;;;2.60;1.10;;;38.40;29.10;;;;;;4901024;29;21119;-74
2022/06/14 08:53:56;;;;;;;2.72;1.10;;;38.70;27.90;;;;;;4915324;29;20028;-76
2022/06/14 08:56:28;;;;;;;2.80;1.10;;;37.80;29.70;;;;;;4911163;29;20104;-75
2022/06/14 08:59:15;;;;;;;3.58;0.95;;;37.90;31.30;;;;;;4911715;29;20055;-79
2022/06/14 09:01:59;;;;;;;3.92;0.82;;;37.50;28.50;;;;;;4917687;29;20042;-75
2022/06/14 09:04:57;;;;;;;4.22;1.08;;;37.80;30.00;;;;;;4909251;29;20040;-76
2022/06/14 09:07:38;;;;;;;4.38;1.20;;;38.10;29.00;;;;;;4912080;29;20028;-76
2022/06/14 09:10:03;;;;;;;2.00;0.98;;;38.80;29.30;;;;;;4907709;29;20106;-76
2022/06/14 09:12:50;;;;;;;2.50;1.08;;;38.10;28.90;;;;;;4909919;29;20055;-74
2022/06/14 09:15:35;;;;;;;2.63;0.90;;;38.40;30.10;;;;;;4903033;29;20058;-75
2022/06/14 09:18:28;;;;;;;1.95;0.73;;;38.80;27.00;;;;;;4906470;29;20024;-76
2022/06/14 09:20:56;;;;;;;3.55;1.13;;;37.10;29.90;;;;;;4896228;29;20051;-74
2022/06/14 09:24:00;;;;;;;3.20;0.77;;;37.50;32.30;;;;;;4914140;29;20130;-75
2022/06/14 09:26:43;;;;;;;3.35;1.00;;;37.00;29.80;;;;;;4894812;29;20091;-75
2022/06/14 09:29:24;;;;;;;4.10;0.90;;;36.60;30.80;;;;;;3891872;28;10000855;-74
2022/06/14 09:31:52;;;;;;;2.05;0.90;;;36.90;31.40;;;;;;4906508;29;20066;-75
2022/06/14 09:34:39;;;;;;;2.95;1.00;;;36.70;31.50;;;;;;4896848;29;20032;-73
2022/06/14 09:37:17;;;;;;;1.77;1.00;;;35.30;29.10;;;;;;4888054;29;20019;-74
2022/06/14 09:39:55;;;;;;;1.55;0.80;;;34.80;28.80;;;;;;4892128;29;20032;-74
2022/06/14 09:42:27;;;;;;;2.50;1.08;;;35.40;30.80;;;;;;4901714;29;20040;-73
2022/06/14 09:45:14;;;;;;;5.00;1.08;;;35.90;35.00;;;;;;4900171;29;20039;-72
2022/06/14 09:48:19;;;;;;;4.47;0.98;;;36.10;34.20;;;;;;4899573;29;20040;-73
2022/06/14 09:51:22;;;;;;;2.88;1.05;;;35.80;31.30;;;;;;4904698;29;20043;-74
2022/06/14 09:54:00;;;;;;;2.13;0.82;;;36.10;35.40;;;;;;4908434;29;20054;-74
2022/06/14 09:56:37;;;;;;;2.90;1.08;;;35.60;30.70;;;;;;4906531;29;20040;-73
2022/06/14 09:59:31;;;;;;;1.90;0.77;;;34.90;31.40;;;;;;4911045;29;20028;-74
2022/06/14 10:02:17;;;;;;;2.58;1.08;;;35.00;35.40;;;;;;4911356;29;20043;-73
2022/06/14 10:04:58;;;;;;;3.15;0.90;;;35.30;31.40;;;;;;4908621;29;20051;-74
2022/06/14 10:07:26;;;;;;;1.92;0.95;;;35.00;35.10;;;;;;4909309;29;20079;-73
2022/06/14 10:10:01;;;;;;;1.58;0.82;;;34.90;35.50;;;;;;4905008;29;20134;-73
2022/06/14 10:13:01;;;;;;;2.72;1.00;;;34.30;34.60;;;;;;4905344;29;20792;-74
2022/06/14 10:15:35;;;;;;;2.67;1.35;;;33.90;34.80;;;;;;4920413;29;20043;-73
2022/06/14 10:18:14;;;;;;;4.05;1.05;;;34.00;30.30;;;;;;4922601;29;20032;-74
2022/06/14 10:20:48;;;;;;;3.28;1.48;;;33.90;30.30;;;;;;4912396;29;20028;-73
2022/06/14 10:24:01;;;;;;;3.00;1.20;;;33.80;31.00;;;;;;4915052;29;20042;-73
2022/06/14 10:29:59;;;;;;;3.60;1.02;;;32.90;36.50;;;;;;4913061;29;20058;-73
2022/06/14 10:32:30;;;;;;;3.35;0.65;;;32.10;35.70;;;;;;4911754;29;20083;-74
2022/06/14 10:35:08;;;;;;;3.15;0.70;;;31.70;35.10;;;;;;4923736;29;20384;-74
2022/06/14 10:37:58;;;;;;;2.20;0.95;;;32.10;36.80;;;;;;4926047;29;20078;-73
2022/06/14 10:40:52;;;;;;;3.95;1.13;;;31.40;33.10;;;;;;4925248;29;20036;-73
2022/06/14 10:43:18;;;;;;;2.47;1.08;;;32.30;34.40;;;;;;4916633;29;20035;-72
2022/06/14 10:45:49;;;;;;;2.13;1.00;;;32.40;37.10;;;;;;4906809;29;20688;-74
2022/06/14 10:48:39;;;;;;;3.47;1.42;;;33.40;34.30;;;;;;4916832;29;20775;-74
2022/06/14 10:51:10;;;;;;;3.25;0.93;;;33.10;33.10;;;;;;4923263;29;20040;-74
2022/06/14 10:53:44;;;;;;;1.90;0.63;;;33.70;37.00;;;;;;4925651;29;20027;-73
2022/06/14 10:56:28;;;;;;;3.08;1.00;;;32.90;31.80;;;;;;4925180;29;20692;-73
2022/06/14 10:59:05;;;;;;;2.17;0.73;;;31.40;36.60;;;;;;4919618;29;20031;-74
2022/06/14 11:01:31;;;;;;;3.78;0.82;;;31.00;37.90;;;;;;4913911;29;20082;-73
2022/06/14 11:03:59;;;;;;;2.70;1.00;;;31.60;37.20;;;;;;4916340;29;20043;-72
2022/06/14 11:06:58;;;;;;;3.83;0.77;;;31.70;34.00;;;;;;4910434;29;20696;-74
2022/06/14 11:09:23;;;;;;;3.70;0.80;;;31.90;34.60;;;;;;4913097;29;20130;-73
2022/06/14 11:12:20;;;;;;;1.63;0.90;;;31.90;36.20;;;;;;4912212;29;20052;-74
2022/06/14 11:15:24;;;;;;;2.38;0.60;;;32.10;34.10;;;;;;4911434;29;20039;-73
2022/06/14 11:18:08;;;;;;;2.03;1.10;;;31.90;33.70;;;;;;4897534;29;20102;-73
2022/06/14 11:21:05;;;;;;;4.75;1.00;;;31.70;35.00;;;;;;4901800;29;20039;-73
2022/06/14 11:24:01;;;;;;;2.97;0.60;;;31.80;39.00;;;;;;4559913;28;10000240;-74
2022/06/14 11:26:29;;;;;;;2.88;0.95;;;31.90;34.90;;;;;;4907682;29;20036;-73
2022/06/14 11:29:01;;;;;;;2.03;1.02;;;31.80;34.50;;;;;;4900905;29;20039;-74
2022/06/14 11:31:39;;;;;;;2.92;0.77;;;31.50;37.40;;;;;;4902656;29;20047;-73
2022/06/14 11:34:26;;;;;;;2.30;0.95;;;30.80;38.20;;;;;;4899380;29;20031;-74
2022/06/14 11:37:04;;;;;;;1.98;0.77;;;30.00;35.90;;;;;;4561124;29;10001459;-74
2022/06/14 11:39:44;;;;;;;2.35;0.90;;;29.00;39.00;;;;;;4902153;29;20051;-73
2022/06/14 11:42:20;;;;;;;2.60;0.80;;;28.50;39.20;;;;;;4901125;29;20133;-74
2022/06/14 11:44:59;;;;;;;3.75;1.15;;;28.00;45.20;;;;;;4905796;29;20262;-74
2022/06/14 11:47:34;;;;;;;3.05;1.00;;;27.40;50.00;;;;;;4899264;29;20114;-72
2022/06/14 11:50:24;;;;;;;1.98;1.10;;;27.60;42.50;;;;;;4899640;29;20585;-72
2022/06/14 11:52:56;;;;;;;1.25;0.88;;;27.60;47.80;;;;;;4900592;29;20024;-74
2022/06/14 11:55:36;;;;;;;4.13;0.88;;;27.80;44.50;;;;;;4904636;29;20068;-76
2022/06/14 11:58:29;;;;;;;2.38;1.08;;;27.50;41.40;;;;;;4905374;29;20059;-73
2022/06/14 12:01:14;;;;;;;2.08;1.08;;;27.50;52.30;;;;;;4918245;28;20040;-72
2022/06/14 12:03:48;;;;;;;5.25;1.25;;;27.20;48.80;;;;;;4911958;29;20495;-73
2022/06/14 12:06:23;;;;;;;5.97;1.02;;;27.40;46.00;;;;;;4906184;29;20554;-72
2022/06/14 12:09:31;;;;;;;2.70;0.80;;;27.20;47.10;;;;;;4905524;29;20039;-72
2022/06/14 12:12:26;;;;;;;3.08;0.90;;;27.30;47.20;;;;;;4892846;29;20067;-72
2022/06/14 12:15:12;;;;;;;1.00;0.80;;;27.20;50.60;;;;;;4907178;29;20123;-73
2022/06/14 12:17:48;;;;;;;4.40;1.25;;;27.20;48.00;;;;;;4907025;29;20035;-73
2022/06/14 12:20:17;;;;;;;2.35;1.02;;;26.70;41.60;;;;;;4906635;29;20031;-73
2022/06/14 12:23:09;;;;;;;3.30;0.98;;;26.50;43.70;;;;;;4906005;29;20499;-72
2022/06/14 12:26:37;;;;;;;2.22;1.00;;;26.60;51.30;;;;;;4908927;29;20548;-73
2022/06/14 12:28:57;;;;;;;1.08;0.90;;;26.80;46.50;;;;;;4899559;29;20683;-73
2022/06/14 12:31:43;;;;;;;3.38;0.90;;;26.50;48.80;;;;;;4911719;29;20562;-73
2022/06/14 12:34:48;;;;;;;5.15;1.20;;;26.60;53.70;;;;;;4906834;29;20035;-72
2022/06/14 12:37:40;;;;;;;5.18;0.93;;;26.40;49.20;;;;;;4910497;29;20051;-73
2022/06/14 12:40:11;;;;;;;;;;;26.60;44.60;;;;;;4908594;29;20034;-73
2022/06/14 12:42:45;;;;;;;2.33;1.10;;;26.50;47.30;;;;;;4916614;29;19914;-73
2022/06/14 12:45:20;;;;;;;4.25;1.05;;;26.50;45.40;;;;;;4914310;29;20852;-73
2022/06/14 12:48:13;;;;;;;4.32;1.17;;;26.40;54.40;;;;;;4907737;29;20135;-72
2022/06/14 12:50:49;;;;;;;1.38;1.02;;;26.30;43.40;;;;;;4924270;29;20049;-73
2022/06/14 12:53:30;;;;;;;3.15;1.13;;;26.30;49.80;;;;;;4923167;29;20488;-73
2022/06/14 12:56:09;;;;;;;0.70;0.70;;;26.40;46.80;;;;;;4918551;29;20028;-73
2022/06/14 12:58:41;;;;;;;1.63;0.70;;;26.30;57.80;;;;;;4920040;29;20084;-73
2022/06/14 13:01:23;;;;;;;1.98;1.02;;;26.40;44.80;;;;;;4922789;29;20028;-73
2022/06/14 13:04:05;;;;;;;2.13;0.77;;;26.40;51.60;;;;;;4923011;29;20035;-74
2022/06/14 13:06:39;;;;;;;4.18;0.90;;;26.40;50.90;;;;;;4923808;29;20119;-74
2022/06/14 13:09:23;;;;;;;3.15;1.30;;;26.10;50.80;;;;;;4922737;29;20071;-73
2022/06/14 13:11:54;;;;;;;2.63;1.02;;;25.80;54.90;;;;;;4921335;29;20080;-73
2022/06/14 13:14:37;;;;;;;2.30;0.90;;;25.80;51.10;;;;;;4922059;29;20598;-73
2022/06/14 13:17:11;;;;;;;5.90;1.13;;;25.90;58.20;;;;;;4918209;29;20287;-73
2022/06/14 13:19:49;;;;;;;1.45;0.85;;;26.00;48.30;;;;;;4911477;29;20089;-73
2022/06/14 13:22:43;;;;;;;2.10;0.93;;;26.00;48.80;;;;;;4914980;29;20043;-73
2022/06/14 13:25:22;;;;;;;3.17;1.02;;;26.00;54.80;;;;;;4914371;29;20035;-72
2022/06/14 13:27:51;;;;;;;1.88;0.95;;;26.00;49.50;;;;;;4896480;29;20659;-72
2022/06/14 13:30:40;;;;;;;3.55;1.00;;;26.00;44.40;;;;;;4919688;29;20083;-72
2022/06/14 13:33:54;;;;;;;1.77;0.75;;;26.00;48.70;;;;;;4916555;29;20479;-73
2022/06/14 13:36:33;;;;;;;5.70;0.98;;;25.90;46.10;;;;;;4895508;29;20080;-72
2022/06/14 13:39:06;;;;;;;1.50;1.00;;;25.60;46.40;;;;;;4916326;29;20062;-73
2022/06/14 13:42:08;;;;;;;1.27;0.65;;;25.30;50.30;;;;;;4902887;29;20039;-72
2022/06/14 13:44:39;;;;;;;3.13;0.85;;;25.50;54.80;;;;;;4915039;29;20050;-72
2022/06/14 13:47:40;;;;;;;4.78;0.98;;;25.50;49.60;;;;;;4921494;29;20079;-72
2022/06/14 13:50:16;;;;;;;2.93;1.07;;;25.50;50.90;;;;;;4924899;29;20055;-71
2022/06/14 13:52:49;;;;;;;1.88;0.88;;;25.50;49.50;;;;;;4924078;29;20336;-72
2022/06/14 13:55:30;;;;;;;2.70;0.80;;;25.50;48.70;;;;;;4920507;29;20119;-72
2022/06/14 13:58:18;;;;;;;1.55;0.70;;;25.50;46.10;;;;;;4917099;29;20028;-72
2022/06/14 14:00:52;;;;;;;1.67;0.80;;;25.30;52.50;;;;;;4915460;29;20059;-72
2022/06/14 14:03:41;;;;;;;4.22;1.33;;;25.30;51.90;;;;;;4913087;29;20062;-72
2022/06/14 14:06:31;;;;;;;2.72;0.90;;;25.30;50.80;;;;;;4902971;29;20048;-72